createdAt,value
2018-05-03T00:00:37.113Z,1010.76
2018-05-03T00:01:45.945Z,1010.74
2018-05-03T00:02:55.417Z,1010.79
2018-05-03T00:04:04.534Z,1010.78
2018-05-03T00:05:13.367Z,1010.79
2018-05-03T00:06:22.250Z,1010.8
2018-05-03T00:07:31.359Z,1010.72
2018-05-03T00:08:40.189Z,1010.75
2018-05-03T00:09:49.024Z,1010.73
2018-05-03T00:10:58.182Z,1010.79
2018-05-03T00:12:07.014Z,1010.8
2018-05-03T00:13:15.848Z,1010.82
2018-05-03T00:14:24.680Z,1010.8
2018-05-03T00:15:33.512Z,1010.83
2018-05-03T00:16:42.349Z,1010.85
2018-05-03T00:17:51.226Z,1010.86
2018-05-03T00:19:00.059Z,1010.88
2018-05-03T00:20:08.892Z,1010.86
2018-05-03T00:21:17.725Z,1010.89
2018-05-03T00:22:26.570Z,1010.93
2018-05-03T00:23:35.452Z,1010.94
2018-05-03T00:24:44.287Z,1010.93
2018-05-03T00:25:53.170Z,1010.94
2018-05-03T00:27:02.225Z,1010.94
2018-05-03T00:28:11.058Z,1010.95
2018-05-03T00:29:19.893Z,1010.94
2018-05-03T00:30:28.722Z,1011
2018-05-03T00:31:37.554Z,1011.01
2018-05-03T00:32:46.671Z,1011.02
2018-05-03T00:33:55.779Z,1011
2018-05-03T00:35:04.863Z,1011
2018-05-03T00:36:13.693Z,1011
2018-05-03T00:37:22.808Z,1011.02
2018-05-03T00:38:31.922Z,1011.04
2018-05-03T00:39:40.751Z,1011.1
2018-05-03T00:40:49.859Z,1011.11
2018-05-03T00:41:58.690Z,1011.13
2018-05-03T00:43:07.520Z,1011.14
2018-05-03T00:44:16.355Z,1011.12
2018-05-03T00:45:25.185Z,1011.12
2018-05-03T00:46:34.068Z,1011.14
2018-05-03T00:47:42.906Z,1011.17
2018-05-03T00:48:52.010Z,1011.19
2018-05-03T00:50:00.841Z,1011.14
2018-05-03T00:51:09.673Z,1011.14
2018-05-03T00:52:18.556Z,1011.15
2018-05-03T00:53:27.389Z,1011.2
2018-05-03T00:54:36.224Z,1011.23
2018-05-03T00:55:45.058Z,1011.24
2018-05-03T00:56:53.887Z,1011.25
2018-05-03T00:58:02.774Z,1011.23
2018-05-03T00:59:11.607Z,1011.24
2018-05-03T01:00:20.439Z,1011.23
2018-05-03T01:01:29.270Z,1011.25
2018-05-03T01:02:38.099Z,1011.22
2018-05-03T01:03:47.030Z,1011.21
2018-05-03T01:04:55.912Z,1011.23
2018-05-03T01:06:05.022Z,1011.19
2018-05-03T01:07:13.854Z,1011.21
2018-05-03T01:08:22.685Z,1011.2
2018-05-03T01:09:31.617Z,1011.27
2018-05-03T01:10:40.450Z,1011.29
2018-05-03T01:11:49.642Z,1011.32
2018-05-03T01:12:58.475Z,1011.33
2018-05-03T01:14:07.597Z,1011.36
2018-05-03T01:15:17.008Z,1011.34
2018-05-03T01:16:25.843Z,1011.36
2018-05-03T01:17:34.678Z,1011.32
2018-05-03T01:18:43.510Z,1011.32
2018-05-03T01:19:52.341Z,1011.36
2018-05-03T01:21:01.276Z,1011.32
2018-05-03T01:22:10.117Z,1011.34
2018-05-03T01:23:18.937Z,1011.35
2018-05-03T01:24:27.769Z,1011.38
2018-05-03T01:25:36.601Z,1011.39
2018-05-03T01:26:45.542Z,1011.39
2018-05-03T01:27:54.665Z,1011.36
2018-05-03T01:29:03.497Z,1011.36
2018-05-03T01:30:12.328Z,1011.37
2018-05-03T01:31:21.160Z,1011.41
2018-05-03T01:32:30.371Z,1011.45
2018-05-03T01:33:39.204Z,1011.46
2018-05-03T01:34:48.038Z,1011.52
2018-05-03T01:35:57.146Z,1011.52
2018-05-03T01:37:06.252Z,1011.47
2018-05-03T01:38:15.233Z,1011.56
2018-05-03T01:39:24.123Z,1011.51
2018-05-03T01:40:32.897Z,1011.59
2018-05-03T01:41:41.733Z,1011.55
2018-05-03T01:42:50.560Z,1011.55
2018-05-03T01:43:59.593Z,1011.54
2018-05-03T01:45:08.424Z,1011.6
2018-05-03T01:46:17.682Z,1011.57
2018-05-03T01:47:26.714Z,1011.57
2018-05-03T01:48:35.547Z,1011.6
2018-05-03T01:49:44.752Z,1011.63
2018-05-03T01:50:53.586Z,1011.65
2018-05-03T01:52:02.419Z,1011.67
2018-05-03T01:53:11.249Z,1011.68
2018-05-03T01:54:20.081Z,1011.63
2018-05-03T01:55:28.914Z,1011.68
2018-05-03T01:56:38.018Z,1011.69
2018-05-03T01:57:46.849Z,1011.69
2018-05-03T01:58:55.680Z,1011.73
2018-05-03T02:00:04.784Z,1011.74
2018-05-03T02:01:13.616Z,1011.77
2018-05-03T02:02:22.448Z,1011.76
2018-05-03T02:03:31.286Z,1011.8
2018-05-03T02:04:40.114Z,1011.77
2018-05-03T02:05:48.944Z,1011.82
2018-05-03T02:06:58.301Z,1011.82
2018-05-03T02:08:07.132Z,1011.79
2018-05-03T02:09:15.966Z,1011.79
2018-05-03T02:10:24.796Z,1011.75
2018-05-03T02:11:33.626Z,1011.79
2018-05-03T02:12:42.734Z,1011.79
2018-05-03T02:13:51.843Z,1011.81
2018-05-03T02:15:00.948Z,1011.8
2018-05-03T02:16:10.061Z,1011.82
2018-05-03T02:17:18.885Z,1011.8
2018-05-03T02:18:28.016Z,1011.81
2018-05-03T02:19:36.848Z,1011.83
2018-05-03T02:20:45.686Z,1011.82
2018-05-03T02:21:55.068Z,1011.81
2018-05-03T02:23:03.900Z,1011.81
2018-05-03T02:24:12.835Z,1011.83
2018-05-03T02:25:21.667Z,1011.85
2018-05-03T02:26:30.499Z,1011.86
2018-05-03T02:27:39.607Z,1011.79
2018-05-03T02:28:48.437Z,1011.82
2018-05-03T02:29:57.833Z,1011.85
2018-05-03T02:31:06.949Z,1011.87
2018-05-03T02:32:16.057Z,1011.87
2018-05-03T02:33:25.263Z,1011.9
2018-05-03T02:34:34.002Z,1011.88
2018-05-03T02:35:43.506Z,1011.86
2018-05-03T02:36:52.625Z,1011.86
2018-05-03T02:38:01.733Z,1011.89
2018-05-03T02:39:10.566Z,1011.91
2018-05-03T02:40:19.946Z,1011.92
2018-05-03T02:41:29.051Z,1011.92
2018-05-03T02:42:37.888Z,1011.93
2018-05-03T02:43:47.002Z,1012
2018-05-03T02:44:56.664Z,1011.99
2018-05-03T02:46:05.769Z,1011.98
2018-05-03T02:47:14.903Z,1011.97
2018-05-03T02:48:24.288Z,1012
2018-05-03T02:49:33.396Z,1012.07
2018-05-03T02:50:42.227Z,1012.05
2018-05-03T02:51:51.354Z,1012.04
2018-05-03T02:53:01.170Z,1012.11
2018-05-03T02:54:10.848Z,1012.15
2018-05-03T02:55:19.962Z,1012.15
2018-05-03T02:56:29.342Z,1012.14
2018-05-03T02:57:38.447Z,1012.12
2018-05-03T02:58:47.278Z,1012.14
2018-05-03T02:59:56.131Z,1012.17
2018-05-03T03:01:04.942Z,1012.18
2018-05-03T03:02:14.113Z,1012.19
2018-05-03T03:03:22.880Z,1012.22
2018-05-03T03:04:32.290Z,1012.3
2018-05-03T03:05:41.122Z,1012.37
2018-05-03T03:06:49.967Z,1012.34
2018-05-03T03:07:59.666Z,1012.34
2018-05-03T03:09:08.500Z,1012.33
2018-05-03T03:10:17.929Z,1012.32
2018-05-03T03:11:27.316Z,1012.34
2018-05-03T03:12:36.984Z,1012.35
2018-05-03T03:13:46.366Z,1012.35
2018-05-03T03:14:55.206Z,1012.36
2018-05-03T03:16:04.138Z,1012.4
2018-05-03T03:17:12.970Z,1012.41
2018-05-03T03:18:21.799Z,1012.43
2018-05-03T03:19:30.632Z,1012.43
2018-05-03T03:20:40.014Z,1012.48
2018-05-03T03:21:48.999Z,1012.48
2018-05-03T03:22:58.107Z,1012.47
2018-05-03T03:24:06.941Z,1012.42
2018-05-03T03:25:15.773Z,1012.44
2018-05-03T03:26:24.883Z,1012.46
2018-05-03T03:27:33.866Z,1012.42
2018-05-03T03:28:42.977Z,1012.44
2018-05-03T03:29:51.810Z,1012.4
2018-05-03T03:31:00.646Z,1012.46
2018-05-03T03:32:10.349Z,1012.48
2018-05-03T03:33:19.582Z,1012.53
2018-05-03T03:34:28.419Z,1012.57
2018-05-03T03:35:37.530Z,1012.57
2018-05-03T03:36:46.360Z,1012.63
2018-05-03T03:37:55.194Z,1012.63
2018-05-03T03:39:04.747Z,1012.7
2018-05-03T03:40:13.580Z,1012.71
2018-05-03T03:41:22.411Z,1012.72
2018-05-03T03:42:31.532Z,1012.75
2018-05-03T03:43:40.355Z,1012.73
2018-05-03T03:44:49.188Z,1012.78
2018-05-03T03:45:58.019Z,1012.79
2018-05-03T03:47:07.129Z,1012.8
2018-05-03T03:48:15.962Z,1012.86
2018-05-03T03:49:25.074Z,1012.87
2018-05-03T03:50:34.002Z,1012.89
2018-05-03T03:51:43.392Z,1012.85
2018-05-03T03:52:52.220Z,1012.85
2018-05-03T03:54:01.051Z,1012.88
2018-05-03T03:55:09.880Z,1012.9
2018-05-03T03:56:18.913Z,1012.94
2018-05-03T03:57:28.021Z,1012.94
2018-05-03T03:58:36.856Z,1013
2018-05-03T03:59:45.687Z,1013.04
2018-05-03T04:00:54.515Z,1013.04
2018-05-03T04:02:04.296Z,1013.08
2018-05-03T04:03:13.405Z,1013.14
2018-05-03T04:04:22.578Z,1013.12
2018-05-03T04:05:31.683Z,1013.14
2018-05-03T04:06:40.789Z,1013.1
2018-05-03T04:07:49.722Z,1013.12
2018-05-03T04:08:58.554Z,1013.08
2018-05-03T04:10:07.664Z,1013.14
2018-05-03T04:11:16.499Z,1013.17
2018-05-03T04:12:25.329Z,1013.17
2018-05-03T04:13:34.568Z,1013.19
2018-05-03T04:14:43.394Z,1013.21
2018-05-03T04:15:52.227Z,1013.22
2018-05-03T04:17:01.056Z,1013.24
2018-05-03T04:18:09.893Z,1013.3
2018-05-03T04:19:18.824Z,1013.36
2018-05-03T04:20:27.928Z,1013.38
2018-05-03T04:21:36.762Z,1013.42
2018-05-03T04:22:45.594Z,1013.42
2018-05-03T04:23:54.427Z,1013.55
2018-05-03T04:25:03.582Z,1013.52
2018-05-03T04:26:12.416Z,1013.56
2018-05-03T04:27:21.811Z,1013.56
2018-05-03T04:28:30.916Z,1013.61
2018-05-03T04:29:39.746Z,1013.61
2018-05-03T04:30:48.580Z,1013.64
2018-05-03T04:31:57.410Z,1013.62
2018-05-03T04:33:06.291Z,1013.68
2018-05-03T04:34:15.355Z,1013.65
2018-05-03T04:35:24.188Z,1013.7
2018-05-03T04:36:33.172Z,1013.71
2018-05-03T04:37:42.004Z,1013.8
2018-05-03T04:38:50.839Z,1013.71
2018-05-03T04:39:59.671Z,1013.65
2018-05-03T04:41:08.777Z,1013.7
2018-05-03T04:42:17.991Z,1013.73
2018-05-03T04:43:26.822Z,1013.7
2018-05-03T04:44:35.654Z,1013.75
2018-05-03T04:45:44.489Z,1013.74
2018-05-03T04:46:53.344Z,1013.74
2018-05-03T04:48:02.583Z,1013.86
2018-05-03T04:49:11.975Z,1013.81
2018-05-03T04:50:20.808Z,1013.8
2018-05-03T04:51:29.643Z,1013.85
2018-05-03T04:52:38.475Z,1013.87
2018-05-03T04:53:47.837Z,1013.9
2018-05-03T04:54:56.670Z,1013.84
2018-05-03T04:56:05.504Z,1013.87
2018-05-03T04:57:14.338Z,1013.92
2018-05-03T04:58:23.171Z,1014.03
2018-05-03T04:59:32.005Z,1013.98
2018-05-03T05:00:40.836Z,1014.01
2018-05-03T05:01:49.949Z,1014.08
2018-05-03T05:02:59.053Z,1014.12
2018-05-03T05:04:07.892Z,1014.11
2018-05-03T05:05:16.820Z,1014.08
2018-05-03T05:06:25.655Z,1014.13
2018-05-03T05:07:34.488Z,1014.13
2018-05-03T05:08:43.319Z,1014.12
2018-05-03T05:09:52.151Z,1014.15
2018-05-03T05:11:01.135Z,1014.18
2018-05-03T05:12:09.968Z,1014.23
2018-05-03T05:13:18.797Z,1014.27
2018-05-03T05:14:27.627Z,1014.3
2018-05-03T05:15:36.464Z,1014.32
2018-05-03T05:16:45.624Z,1014.34
2018-05-03T05:17:54.476Z,1014.37
2018-05-03T05:19:03.693Z,1014.41
2018-05-03T05:20:12.609Z,1014.44
2018-05-03T05:21:21.686Z,1014.46
2018-05-03T05:22:30.771Z,1014.46
2018-05-03T05:23:39.876Z,1014.5
2018-05-03T05:24:48.708Z,1014.51
2018-05-03T05:25:57.538Z,1014.52
2018-05-03T05:27:06.370Z,1014.54
2018-05-03T05:28:15.774Z,1014.57
2018-05-03T05:29:24.609Z,1014.55
2018-05-03T05:30:33.444Z,1014.59
2018-05-03T05:31:42.287Z,1014.53
2018-05-03T05:32:51.111Z,1014.62
2018-05-03T05:33:59.995Z,1014.63
2018-05-03T05:35:08.830Z,1014.67
2018-05-03T05:36:17.940Z,1014.68
2018-05-03T05:37:26.774Z,1014.7
2018-05-03T05:38:35.692Z,1014.75
2018-05-03T05:39:45.079Z,1014.78
2018-05-03T05:40:54.188Z,1014.78
2018-05-03T05:42:03.020Z,1014.83
2018-05-03T05:43:11.850Z,1014.84
2018-05-03T05:44:20.689Z,1014.81
2018-05-03T05:45:29.978Z,1014.83
2018-05-03T05:46:39.088Z,1014.86
2018-05-03T05:47:47.920Z,1014.83
2018-05-03T05:48:56.755Z,1014.81
2018-05-03T05:50:05.589Z,1014.86
2018-05-03T05:51:14.606Z,1014.89
2018-05-03T05:52:23.814Z,1014.88
2018-05-03T05:53:32.652Z,1014.86
2018-05-03T05:54:41.481Z,1014.88
2018-05-03T05:55:50.320Z,1014.91
2018-05-03T05:56:59.256Z,1014.93
2018-05-03T05:58:08.646Z,1014.92
2018-05-03T05:59:17.480Z,1014.92
2018-05-03T06:00:26.596Z,1014.94
2018-05-03T06:01:35.429Z,1014.95
2018-05-03T06:02:44.314Z,1014.97
2018-05-03T06:03:53.147Z,1014.98
2018-05-03T06:05:01.985Z,1015.01
2018-05-03T06:06:10.818Z,1015.04
2018-05-03T06:07:19.651Z,1015.03
2018-05-03T06:08:28.685Z,1015.07
2018-05-03T06:09:37.519Z,1015.09
2018-05-03T06:10:46.633Z,1015.16
2018-05-03T06:11:55.463Z,1015.14
2018-05-03T06:13:04.295Z,1015.15
2018-05-03T06:14:13.129Z,1015.17
2018-05-03T06:15:21.968Z,1015.19
2018-05-03T06:16:31.074Z,1015.24
2018-05-03T06:17:40.182Z,1015.24
2018-05-03T06:18:49.022Z,1015.3
2018-05-03T06:19:57.956Z,1015.27
2018-05-03T06:21:07.346Z,1015.25
2018-05-03T06:22:16.177Z,1015.31
2018-05-03T06:23:25.282Z,1015.36
2018-05-03T06:24:34.111Z,1015.37
2018-05-03T06:25:42.944Z,1015.38
2018-05-03T06:26:51.776Z,1015.38
2018-05-03T06:28:00.610Z,1015.37
2018-05-03T06:29:09.445Z,1015.36
2018-05-03T06:30:18.276Z,1015.34
2018-05-03T06:31:27.210Z,1015.4
2018-05-03T06:32:36.050Z,1015.44
2018-05-03T06:33:44.881Z,1015.48
2018-05-03T06:34:53.985Z,1015.44
2018-05-03T06:36:03.098Z,1015.47
2018-05-03T06:37:12.080Z,1015.52
2018-05-03T06:38:20.914Z,1015.58
2018-05-03T06:39:30.039Z,1015.57
2018-05-03T06:40:38.872Z,1015.58
2018-05-03T06:41:47.707Z,1015.57
2018-05-03T06:42:56.536Z,1015.57
2018-05-03T06:44:05.371Z,1015.59
2018-05-03T06:45:14.530Z,1015.63
2018-05-03T06:46:23.307Z,1015.62
2018-05-03T06:47:32.148Z,1015.63
2018-05-03T06:48:40.971Z,1015.63
2018-05-03T06:49:49.805Z,1015.62
2018-05-03T06:50:58.637Z,1015.68
2018-05-03T06:52:07.471Z,1015.67
2018-05-03T06:53:16.306Z,1015.68
2018-05-03T06:54:25.190Z,1015.73
2018-05-03T06:55:34.310Z,1015.7
2018-05-03T06:56:43.147Z,1015.76
2018-05-03T06:57:51.980Z,1015.75
2018-05-03T06:59:00.814Z,1015.75
2018-05-03T07:00:09.798Z,1015.79
2018-05-03T07:01:18.904Z,1015.81
2018-05-03T07:02:27.738Z,1015.81
2018-05-03T07:03:36.574Z,1015.83
2018-05-03T07:04:45.408Z,1015.77
2018-05-03T07:05:54.288Z,1015.82
2018-05-03T07:07:03.124Z,1015.81
2018-05-03T07:08:11.965Z,1015.84
2018-05-03T07:09:20.790Z,1015.88
2018-05-03T07:10:29.627Z,1015.88
2018-05-03T07:11:38.610Z,1015.9
2018-05-03T07:12:47.719Z,1015.97
2018-05-03T07:13:56.548Z,1016
2018-05-03T07:15:05.383Z,1016.03
2018-05-03T07:16:14.262Z,1016.03
2018-05-03T07:17:23.202Z,1016.01
2018-05-03T07:18:32.585Z,1016.02
2018-05-03T07:19:41.415Z,1016.02
2018-05-03T07:20:50.247Z,1015.98
2018-05-03T07:21:59.081Z,1016.04
2018-05-03T07:23:08.188Z,1016.03
2018-05-03T07:24:17.024Z,1016.11
2018-05-03T07:25:25.862Z,1016.1
2018-05-03T07:26:34.981Z,1016.14
2018-05-03T07:27:43.812Z,1016.1
2018-05-03T07:28:52.747Z,1016.18
2018-05-03T07:30:01.583Z,1016.2
2018-05-03T07:31:10.412Z,1016.18
2018-05-03T07:32:19.245Z,1016.22
2018-05-03T07:33:28.078Z,1016.26
2018-05-03T07:34:37.463Z,1016.22
2018-05-03T07:35:46.573Z,1016.27
2018-05-03T07:36:55.687Z,1016.28
2018-05-03T07:38:04.523Z,1016.31
2018-05-03T07:39:13.656Z,1016.36
2018-05-03T07:40:22.490Z,1016.32
2018-05-03T07:41:31.329Z,1016.34
2018-05-03T07:42:40.431Z,1016.31
2018-05-03T07:43:49.263Z,1016.35
2018-05-03T07:44:58.097Z,1016.34
2018-05-03T07:46:07.043Z,1016.4
2018-05-03T07:47:15.887Z,1016.42
2018-05-03T07:48:24.719Z,1016.43
2018-05-03T07:49:33.864Z,1016.46
2018-05-03T07:50:42.700Z,1016.46
2018-05-03T07:51:51.812Z,1016.5
2018-05-03T07:53:00.919Z,1016.5
2018-05-03T07:54:10.033Z,1016.51
2018-05-03T07:55:18.865Z,1016.53
2018-05-03T07:56:27.704Z,1016.54
2018-05-03T07:57:36.747Z,1016.54
2018-05-03T07:58:45.575Z,1016.53
2018-05-03T07:59:54.411Z,1016.55
2018-05-03T08:01:03.243Z,1016.58
2018-05-03T08:02:12.194Z,1016.6
2018-05-03T08:03:21.684Z,1016.57
2018-05-03T08:04:30.522Z,1016.61
2018-05-03T08:05:39.639Z,1016.6
2018-05-03T08:06:49.024Z,1016.63
2018-05-03T08:07:57.856Z,1016.65
2018-05-03T08:09:06.688Z,1016.7
2018-05-03T08:10:15.794Z,1016.76
2018-05-03T08:11:24.630Z,1016.77
2018-05-03T08:12:33.495Z,1016.73
2018-05-03T08:13:43.033Z,1016.76
2018-05-03T08:14:51.964Z,1016.76
2018-05-03T08:16:01.072Z,1016.77
2018-05-03T08:17:09.954Z,1016.83
2018-05-03T08:18:18.743Z,1016.81
2018-05-03T08:19:27.576Z,1016.88
2018-05-03T08:20:36.608Z,1016.89
2018-05-03T08:21:45.440Z,1016.94
2018-05-03T08:22:54.274Z,1016.9
2018-05-03T08:24:03.108Z,1016.94
2018-05-03T08:25:11.942Z,1016.93
2018-05-03T08:26:20.824Z,1016.96
2018-05-03T08:27:29.946Z,1016.94
2018-05-03T08:28:38.856Z,1017.02
2018-05-03T08:29:47.893Z,1017.02
2018-05-03T08:30:56.727Z,1017.02
2018-05-03T08:32:05.613Z,1017
2018-05-03T08:33:14.448Z,1017.02
2018-05-03T08:34:23.843Z,1017.05
2018-05-03T08:35:32.678Z,1017
2018-05-03T08:36:41.517Z,1017.03
2018-05-03T08:37:50.449Z,1016.99
2018-05-03T08:38:59.284Z,1017.05
2018-05-03T08:40:08.117Z,1017.06
2018-05-03T08:41:16.954Z,1017.06
2018-05-03T08:42:25.791Z,1017.04
2018-05-03T08:43:34.627Z,1017.16
2018-05-03T08:44:43.465Z,1017.15
2018-05-03T08:45:52.587Z,1017.16
2018-05-03T08:47:01.424Z,1017.17
2018-05-03T08:48:10.261Z,1017.16
2018-05-03T08:49:19.497Z,1017.11
2018-05-03T08:50:28.331Z,1017.12
2018-05-03T08:51:37.442Z,1017.16
2018-05-03T08:52:46.277Z,1017.2
2018-05-03T08:53:55.387Z,1017.18
2018-05-03T08:55:04.323Z,1017.24
2018-05-03T08:56:13.437Z,1017.27
2018-05-03T08:57:22.273Z,1017.34
2018-05-03T08:58:31.387Z,1017.3
2018-05-03T08:59:40.221Z,1017.38
2018-05-03T09:00:49.363Z,1017.38
2018-05-03T09:01:58.193Z,1017.36
2018-05-03T09:03:07.028Z,1017.38
2018-05-03T09:04:16.426Z,1017.42
2018-05-03T09:05:25.261Z,1017.38
2018-05-03T09:06:34.245Z,1017.44
2018-05-03T09:07:43.158Z,1017.41
2018-05-03T09:08:52.523Z,1017.4
2018-05-03T09:10:01.362Z,1017.41
2018-05-03T09:11:10.474Z,1017.42
2018-05-03T09:12:19.609Z,1017.45
2018-05-03T09:13:28.445Z,1017.46
2018-05-03T09:14:37.556Z,1017.44
2018-05-03T09:15:46.394Z,1017.51
2018-05-03T09:16:55.227Z,1017.46
2018-05-03T09:18:04.335Z,1017.47
2018-05-03T09:19:13.174Z,1017.56
2018-05-03T09:20:22.009Z,1017.53
2018-05-03T09:21:30.846Z,1017.54
2018-05-03T09:22:39.680Z,1017.57
2018-05-03T09:23:48.520Z,1017.59
2018-05-03T09:24:57.351Z,1017.54
2018-05-03T09:26:06.193Z,1017.58
2018-05-03T09:27:15.031Z,1017.65
2018-05-03T09:28:24.138Z,1017.68
2018-05-03T09:29:33.172Z,1017.69
2018-05-03T09:30:42.277Z,1017.77
2018-05-03T09:31:51.112Z,1017.8
2018-05-03T09:32:59.944Z,1017.73
2018-05-03T09:34:08.781Z,1017.8
2018-05-03T09:35:17.613Z,1017.84
2018-05-03T09:36:26.723Z,1017.78
2018-05-03T09:37:35.830Z,1017.76
2018-05-03T09:38:44.666Z,1017.75
2018-05-03T09:39:53.504Z,1017.79
2018-05-03T09:41:02.826Z,1017.83
2018-05-03T09:42:11.597Z,1017.86
2018-05-03T09:43:20.434Z,1017.86
2018-05-03T09:44:29.320Z,1017.88
2018-05-03T09:45:38.664Z,1017.88
2018-05-03T09:46:47.773Z,1017.88
2018-05-03T09:47:56.608Z,1017.9
2018-05-03T09:49:05.445Z,1017.9
2018-05-03T09:50:14.280Z,1017.95
2018-05-03T09:51:23.117Z,1017.99
2018-05-03T09:52:32.269Z,1017.96
2018-05-03T09:53:41.091Z,1017.93
2018-05-03T09:54:49.923Z,1017.98
2018-05-03T09:55:58.757Z,1018
2018-05-03T09:57:07.594Z,1017.97
2018-05-03T09:58:16.531Z,1018.03
2018-05-03T09:59:25.763Z,1018.03
2018-05-03T10:00:34.483Z,1018.06
2018-05-03T10:01:43.317Z,1018.1
2018-05-03T10:02:52.424Z,1018.11
2018-05-03T10:04:01.443Z,1018.07
2018-05-03T10:05:10.202Z,1018.11
2018-05-03T10:06:19.317Z,1018.09
2018-05-03T10:07:28.154Z,1018.11
2018-05-03T10:08:36.995Z,1018.12
2018-05-03T10:09:46.201Z,1018.14
2018-05-03T10:10:55.040Z,1018.13
2018-05-03T10:12:04.430Z,1018.18
2018-05-03T10:13:13.312Z,1018.2
2018-05-03T10:14:22.097Z,1018.21
2018-05-03T10:15:31.488Z,1018.23
2018-05-03T10:16:40.325Z,1018.29
2018-05-03T10:17:49.438Z,1018.24
2018-05-03T10:18:58.272Z,1018.18
2018-05-03T10:20:07.109Z,1018.23
2018-05-03T10:21:16.245Z,1018.28
2018-05-03T10:22:25.084Z,1018.32
2018-05-03T10:23:33.919Z,1018.28
2018-05-03T10:24:42.752Z,1018.29
2018-05-03T10:25:51.591Z,1018.28
2018-05-03T10:27:00.674Z,1018.34
2018-05-03T10:28:09.510Z,1018.36
2018-05-03T10:29:18.620Z,1018.4
2018-05-03T10:30:27.459Z,1018.43
2018-05-03T10:31:36.298Z,1018.39
2018-05-03T10:32:45.606Z,1018.46
2018-05-03T10:33:54.452Z,1018.46
2018-05-03T10:35:03.289Z,1018.46
2018-05-03T10:36:12.308Z,1018.46
2018-05-03T10:37:21.278Z,1018.46
2018-05-03T10:38:30.216Z,1018.37
2018-05-03T10:39:39.330Z,1018.4
2018-05-03T10:40:48.164Z,1018.45
2018-05-03T10:41:57.077Z,1018.41
2018-05-03T10:43:06.246Z,1018.47
2018-05-03T10:44:15.233Z,1018.45
2018-05-03T10:45:24.067Z,1018.46
2018-05-03T10:46:32.903Z,1018.46
2018-05-03T10:47:41.738Z,1018.43
2018-05-03T10:48:50.581Z,1018.42
2018-05-03T10:49:59.808Z,1018.46
2018-05-03T10:51:08.642Z,1018.41
2018-05-03T10:52:17.480Z,1018.41
2018-05-03T10:53:26.315Z,1018.41
2018-05-03T10:54:35.151Z,1018.39
2018-05-03T10:55:44.818Z,1018.5
2018-05-03T10:56:53.657Z,1018.48
2018-05-03T10:58:02.494Z,1018.5
2018-05-03T10:59:11.614Z,1018.5
2018-05-03T11:00:20.449Z,1018.46
2018-05-03T11:01:29.386Z,1018.49
2018-05-03T11:02:38.222Z,1018.49
2018-05-03T11:03:47.055Z,1018.49
2018-05-03T11:04:55.891Z,1018.46
2018-05-03T11:06:04.729Z,1018.48
2018-05-03T11:07:13.716Z,1018.5
2018-05-03T11:08:22.551Z,1018.47
2018-05-03T11:09:31.388Z,1018.5
2018-05-03T11:10:40.224Z,1018.49
2018-05-03T11:11:49.059Z,1018.57
2018-05-03T11:12:58.144Z,1018.58
2018-05-03T11:14:07.256Z,1018.6
2018-05-03T11:15:16.093Z,1018.59
2018-05-03T11:16:24.929Z,1018.65
2018-05-03T11:17:33.774Z,1018.67
2018-05-03T11:18:42.913Z,1018.68
2018-05-03T11:19:51.747Z,1018.7
2018-05-03T11:21:00.584Z,1018.62
2018-05-03T11:22:09.695Z,1018.6
2018-05-03T11:23:18.819Z,1018.62
2018-05-03T11:24:27.763Z,1018.59
2018-05-03T11:25:36.601Z,1018.63
2018-05-03T11:26:45.687Z,1018.65
2018-05-03T11:27:54.799Z,1018.61
2018-05-03T11:29:04.740Z,1018.55
2018-05-03T11:30:14.245Z,1018.52
2018-05-03T11:31:23.578Z,1018.55
2018-05-03T11:32:34.086Z,1018.58
2018-05-03T11:33:43.171Z,1018.56
2018-05-03T11:34:52.800Z,1018.61
2018-05-03T11:36:01.986Z,1018.62
2018-05-03T11:37:11.118Z,1018.59
2018-05-03T11:38:20.162Z,1018.71
2018-05-03T11:39:29.495Z,1018.64
2018-05-03T11:40:38.409Z,1018.58
2018-05-03T11:41:47.262Z,1018.62
2018-05-03T11:42:56.877Z,1018.58
2018-05-03T11:44:05.731Z,1018.63
2018-05-03T11:45:14.879Z,1018.59
2018-05-03T11:46:23.763Z,1018.74
2018-05-03T11:47:32.953Z,1018.76
2018-05-03T11:48:41.945Z,1018.74
2018-05-03T11:49:51.530Z,1018.69
2018-05-03T11:51:00.369Z,1018.66
2018-05-03T11:52:10.097Z,1018.67
2018-05-03T11:53:18.958Z,1018.64
2018-05-03T11:54:27.797Z,1018.6
2018-05-03T11:55:36.735Z,1018.61
2018-05-03T11:56:45.849Z,1018.66
2018-05-03T11:57:54.687Z,1018.64
2018-05-03T11:59:03.541Z,1018.64
2018-05-03T12:00:12.366Z,1018.7
2018-05-03T12:01:21.590Z,1018.67
2018-05-03T12:02:30.512Z,1018.72
2018-05-03T12:03:39.262Z,1018.72
2018-05-03T12:04:48.374Z,1018.7
2018-05-03T12:05:57.521Z,1018.71
2018-05-03T12:07:07.440Z,1018.68
2018-05-03T12:08:16.282Z,1018.69
2018-05-03T12:09:25.117Z,1018.74
2018-05-03T12:10:33.960Z,1018.69
2018-05-03T12:11:42.866Z,1018.69
2018-05-03T12:12:52.628Z,1018.74
2018-05-03T12:14:01.745Z,1018.76
2018-05-03T12:15:10.584Z,1018.78
2018-05-03T12:16:19.422Z,1018.71
2018-05-03T12:17:28.259Z,1018.73
2018-05-03T12:18:37.102Z,1018.76
2018-05-03T12:19:45.943Z,1018.71
2018-05-03T12:20:54.777Z,1018.68
2018-05-03T12:22:03.622Z,1018.69
2018-05-03T12:23:12.469Z,1018.74
2018-05-03T12:24:21.675Z,1018.77
2018-05-03T12:25:30.824Z,1018.74
2018-05-03T12:26:39.662Z,1018.72
2018-05-03T12:27:48.507Z,1018.67
2018-05-03T12:28:57.351Z,1018.74
2018-05-03T12:30:06.656Z,1018.74
2018-05-03T12:31:15.496Z,1018.77
2018-05-03T12:32:24.334Z,1018.78
2018-05-03T12:33:33.179Z,1018.85
2018-05-03T12:34:42.304Z,1018.79
2018-05-03T12:35:51.516Z,1018.76
2018-05-03T12:37:00.354Z,1018.71
2018-05-03T12:38:09.467Z,1018.72
2018-05-03T12:39:18.307Z,1018.79
2018-05-03T12:40:27.149Z,1018.78
2018-05-03T12:41:36.091Z,1018.86
2018-05-03T12:42:44.933Z,1018.89
2018-05-03T12:43:53.773Z,1018.91
2018-05-03T12:45:02.616Z,1018.88
2018-05-03T12:46:11.740Z,1018.87
2018-05-03T12:47:20.654Z,1018.88
2018-05-03T12:48:29.880Z,1018.82
2018-05-03T12:49:38.718Z,1018.94
2018-05-03T12:50:47.561Z,1018.92
2018-05-03T12:51:56.404Z,1019.01
2018-05-03T12:53:05.294Z,1018.97
2018-05-03T12:54:14.170Z,1018.98
2018-05-03T12:55:23.283Z,1018.93
2018-05-03T12:56:32.133Z,1018.89
2018-05-03T12:57:40.980Z,1018.87
2018-05-03T12:58:49.923Z,1018.94
2018-05-03T12:59:58.766Z,1018.96
2018-05-03T13:01:07.610Z,1019.05
2018-05-03T13:02:16.461Z,1018.91
2018-05-03T13:03:25.579Z,1019
2018-05-03T13:04:34.574Z,1018.94
2018-05-03T13:05:43.694Z,1018.99
2018-05-03T13:06:52.538Z,1018.96
2018-05-03T13:08:01.661Z,1018.93
2018-05-03T13:09:10.779Z,1018.85
2018-05-03T13:10:20.107Z,1018.92
2018-05-03T13:11:28.963Z,1018.91
2018-05-03T13:12:37.809Z,1018.92
2018-05-03T13:13:46.658Z,1018.87
2018-05-03T13:14:55.505Z,1018.88
2018-05-03T13:16:04.448Z,1018.88
2018-05-03T13:17:13.293Z,1018.9
2018-05-03T13:18:22.426Z,1018.9
2018-05-03T13:19:31.283Z,1018.91
2018-05-03T13:20:40.131Z,1018.96
2018-05-03T13:21:49.357Z,1018.93
2018-05-03T13:22:58.199Z,1018.95
2018-05-03T13:24:07.040Z,1018.93
2018-05-03T13:25:15.880Z,1018.98
2018-05-03T13:26:24.725Z,1018.99
2018-05-03T13:27:33.893Z,1018.94
2018-05-03T13:28:42.730Z,1018.93
2018-05-03T13:29:51.570Z,1018.97
2018-05-03T13:31:00.685Z,1018.9
2018-05-03T13:32:09.525Z,1018.97
2018-05-03T13:33:18.368Z,1018.94
2018-05-03T13:34:27.234Z,1019
2018-05-03T13:35:36.347Z,1018.94
2018-05-03T13:36:45.191Z,1018.92
2018-05-03T13:37:54.032Z,1019.04
2018-05-03T13:39:03.203Z,1019.04
2018-05-03T13:40:12.056Z,1019.09
2018-05-03T13:41:21.092Z,1019.03
2018-05-03T13:42:30.246Z,1018.98
2018-05-03T13:43:39.362Z,1019.01
2018-05-03T13:44:48.741Z,1019
2018-05-03T13:45:57.590Z,1019.08
2018-05-03T13:47:06.443Z,1019.05
2018-05-03T13:48:15.283Z,1019.11
2018-05-03T13:49:24.397Z,1019.11
2018-05-03T13:50:33.338Z,1019.12
2018-05-03T13:51:42.183Z,1019.07
2018-05-03T13:52:51.021Z,1019.27
2018-05-03T13:53:59.861Z,1019.41
2018-05-03T13:55:08.701Z,1019.47
2018-05-03T13:56:17.743Z,1019.43
2018-05-03T13:57:26.580Z,1019.43
2018-05-03T13:58:35.422Z,1019.07